createdAt,value
2022-12-20T00:01:50.459Z,10.13
2022-12-20T00:04:23.872Z,8.27
2022-12-20T00:06:57.159Z,8.63
2022-12-20T00:09:30.671Z,10.70
2022-12-20T00:12:06.064Z,8.13
2022-12-20T00:14:40.740Z,11.10
2022-12-20T00:17:14.501Z,9.93
2022-12-20T00:19:48.276Z,10.45
2022-12-20T00:22:21.704Z,11.15
2022-12-20T00:24:55.007Z,8.57
2022-12-20T00:27:28.454Z,10.25
2022-12-20T00:30:03.158Z,7.20
2022-12-20T00:32:36.512Z,9.07
2022-12-20T00:35:10.668Z,11.80
2022-12-20T00:37:44.042Z,12.98
2022-12-20T00:40:17.931Z,12.25
2022-12-20T00:42:51.209Z,12.95
2022-12-20T00:45:26.016Z,13.40
2022-12-20T00:47:59.254Z,11.95
2022-12-20T00:50:33.051Z,8.88
2022-12-20T00:53:10.094Z,12.07
2022-12-20T00:55:44.217Z,10.63
2022-12-20T00:58:17.486Z,10.60
2022-12-20T01:00:56.603Z,12.32
2022-12-20T01:03:30.637Z,11.43
2022-12-20T01:06:04.680Z,9.48
2022-12-20T01:08:38.046Z,14.45
2022-12-20T01:11:14.685Z,10.10
2022-12-20T01:13:50.416Z,9.15
2022-12-20T01:16:27.320Z,7.90
2022-12-20T01:19:01.482Z,9.32
2022-12-20T01:21:35.556Z,9.20
2022-12-20T01:24:09.692Z,9.95
2022-12-20T01:26:43.329Z,7.82
2022-12-20T01:29:17.197Z,11.77
2022-12-20T01:31:53.993Z,10.70
2022-12-20T01:34:27.665Z,8.18
2022-12-20T01:37:00.987Z,11.93
2022-12-20T01:39:34.607Z,13.52
2022-12-20T01:42:08.059Z,11.95
2022-12-20T01:44:58.355Z,8.82
2022-12-20T01:47:38.111Z,13.18
2022-12-20T01:50:12.412Z,13.90
2022-12-20T01:52:48.101Z,14.95
2022-12-20T01:55:25.956Z,13.90
2022-12-20T01:58:02.253Z,12.73
2022-12-20T02:00:35.720Z,14.13
2022-12-20T02:03:13.744Z,12.63
2022-12-20T02:05:49.173Z,12.50
2022-12-20T02:08:22.582Z,8.98
2022-12-20T02:11:10.807Z,12.52
2022-12-20T02:13:52.839Z,9.27
2022-12-20T02:16:29.880Z,9.65
2022-12-20T02:19:19.889Z,10.60
2022-12-20T02:21:58.762Z,12.45
2022-12-20T02:25:00.271Z,10.00
2022-12-20T02:27:59.783Z,14.93
2022-12-20T02:30:39.192Z,10.25
2022-12-20T02:33:15.550Z,12.77
2022-12-20T02:35:50.056Z,11.70
2022-12-20T02:38:30.107Z,10.65
2022-12-20T02:41:09.075Z,11.25
2022-12-20T02:44:09.800Z,11.90
2022-12-20T02:46:45.084Z,10.30
2022-12-20T02:49:21.759Z,9.25
2022-12-20T02:51:57.319Z,15.07
2022-12-20T02:54:31.312Z,10.93
2022-12-20T02:57:11.246Z,11.13
2022-12-20T02:59:51.084Z,14.85
2022-12-20T03:02:27.209Z,15.52
2022-12-20T03:05:01.009Z,10.27
2022-12-20T03:07:35.800Z,10.98
2022-12-20T03:10:10.880Z,12.18
2022-12-20T03:12:44.537Z,14.38
2022-12-20T03:15:17.998Z,10.50
2022-12-20T03:17:54.144Z,12.15
2022-12-20T03:20:29.044Z,16.05
2022-12-20T03:23:02.691Z,13.48
2022-12-20T03:25:36.254Z,10.38
2022-12-20T03:28:11.020Z,13.75
2022-12-20T03:30:46.451Z,13.55
2022-12-20T03:33:21.207Z,9.68
2022-12-20T03:35:54.786Z,9.15
2022-12-20T03:38:28.748Z,13.02
2022-12-20T03:41:02.364Z,9.98
2022-12-20T03:43:35.775Z,10.50
2022-12-20T03:46:09.438Z,13.43
2022-12-20T03:48:46.238Z,8.70
2022-12-20T03:51:19.679Z,10.35
2022-12-20T03:53:53.066Z,10.27
2022-12-20T03:56:28.869Z,10.52
2022-12-20T03:59:02.729Z,10.68
2022-12-20T04:01:38.710Z,11.90
2022-12-20T04:04:15.069Z,15.45
2022-12-20T04:06:48.556Z,12.85
2022-12-20T04:09:22.632Z,11.57
2022-12-20T04:12:01.949Z,10.85
2022-12-20T04:14:37.657Z,13.90
2022-12-20T04:17:11.593Z,15.75
2022-12-20T04:19:46.827Z,11.38
2022-12-20T04:22:20.458Z,13.32
2022-12-20T04:25:01.742Z,19.35
2022-12-20T04:27:38.712Z,14.10
2022-12-20T04:30:15.154Z,10.45
2022-12-20T04:32:48.674Z,11.10
2022-12-20T04:35:23.370Z,10.27
2022-12-20T04:37:57.227Z,12.48
2022-12-20T04:40:30.569Z,10.00
2022-12-20T04:43:06.969Z,10.20
2022-12-20T04:45:41.417Z,13.88
2022-12-20T04:48:54.499Z,12.45
2022-12-20T04:51:09.866Z,15.10
2022-12-20T04:53:48.365Z,15.43
2022-12-20T04:56:44.563Z,9.25
2022-12-20T04:59:22.743Z,10.25
2022-12-20T05:01:59.146Z,10.75
2022-12-20T05:04:55.659Z,11.55
2022-12-20T05:07:30.570Z,12.63
2022-12-20T05:10:04.148Z,12.10
2022-12-20T05:12:37.969Z,12.25
2022-12-20T05:15:12.702Z,13.32
2022-12-20T05:17:46.162Z,11.32
2022-12-20T05:20:20.195Z,11.63
2022-12-20T05:23:13.281Z,12.95
2022-12-20T05:26:04.814Z,9.68
2022-12-20T05:28:38.120Z,9.80
2022-12-20T05:31:11.916Z,11.75
2022-12-20T05:33:45.737Z,12.40
2022-12-20T05:36:19.585Z,10.77
2022-12-20T05:39:01.960Z,10.98
2022-12-20T05:41:38.535Z,9.70
2022-12-20T05:44:13.116Z,11.60
2022-12-20T05:46:49.967Z,7.82
2022-12-20T05:49:29.069Z,7.18
2022-12-20T05:52:03.437Z,11.63
2022-12-20T05:54:38.291Z,10.98
2022-12-20T05:57:20.973Z,8.98
2022-12-20T05:59:54.771Z,12.98
2022-12-20T06:02:31.262Z,13.75
2022-12-20T06:05:09.738Z,9.45
2022-12-20T06:07:43.471Z,11.77
2022-12-20T06:10:21.577Z,12.30
2022-12-20T06:13:00.314Z,13.18
2022-12-20T06:15:33.712Z,10.50
2022-12-20T06:18:08.528Z,10.50
2022-12-20T06:20:42.199Z,9.10
2022-12-20T06:23:18.933Z,12.13
2022-12-20T06:26:03.120Z,12.18
2022-12-20T06:28:43.109Z,13.38
2022-12-20T06:31:16.538Z,10.93
2022-12-20T06:33:54.040Z,12.50
2022-12-20T06:36:29.323Z,14.88
2022-12-20T06:39:09.244Z,10.98
2022-12-20T06:41:49.880Z,15.60
2022-12-20T06:44:23.243Z,15.15
2022-12-20T06:46:57.562Z,12.73
2022-12-20T06:49:32.035Z,15.32
2022-12-20T06:52:06.020Z,12.32
2022-12-20T06:54:48.805Z,12.30
2022-12-20T06:57:23.675Z,15.00
2022-12-20T06:59:58.080Z,12.93
2022-12-20T07:02:31.499Z,16.30
2022-12-20T07:05:05.191Z,9.98
2022-12-20T07:07:44.629Z,11.35
2022-12-20T07:10:18.955Z,12.18
2022-12-20T07:12:54.882Z,11.45
2022-12-20T07:15:28.198Z,11.23
2022-12-20T07:18:01.590Z,11.38
2022-12-20T07:20:34.941Z,11.95
2022-12-20T07:23:08.252Z,14.70
2022-12-20T07:25:41.553Z,11.80
2022-12-20T07:28:16.203Z,13.18
2022-12-20T07:30:49.532Z,15.23
2022-12-20T07:33:22.847Z,17.25
2022-12-20T07:36:01.952Z,14.82
2022-12-20T07:38:36.027Z,12.45
2022-12-20T07:41:10.707Z,10.25
2022-12-20T07:43:45.509Z,13.43
2022-12-20T07:46:19.217Z,14.70
2022-12-20T07:48:52.677Z,14.07
2022-12-20T07:51:31.817Z,13.60
2022-12-20T07:54:10.709Z,15.65
2022-12-20T07:56:48.342Z,13.05
2022-12-20T07:59:25.609Z,14.48
2022-12-20T08:02:04.321Z,13.45
2022-12-20T08:04:38.337Z,16.35
2022-12-20T08:07:12.623Z,11.73
2022-12-20T08:09:47.414Z,12.85
2022-12-20T08:12:22.100Z,19.48
2022-12-20T08:14:56.879Z,13.65
2022-12-20T08:17:30.198Z,11.88
2022-12-20T08:20:05.763Z,10.43
2022-12-20T08:22:39.106Z,12.38
2022-12-20T08:25:12.939Z,11.77
2022-12-20T08:27:46.400Z,11.60
2022-12-20T08:30:21.258Z,12.68
2022-12-20T08:32:54.577Z,14.75
2022-12-20T08:35:27.895Z,13.27
2022-12-20T08:38:01.213Z,12.52
2022-12-20T08:40:34.497Z,10.77
2022-12-20T08:43:10.389Z,15.10
2022-12-20T08:45:45.305Z,11.20
2022-12-20T08:48:18.818Z,13.90
2022-12-20T08:50:56.857Z,12.73
2022-12-20T08:53:30.868Z,10.80
2022-12-20T08:56:08.581Z,11.23
2022-12-20T08:58:42.873Z,13.40
2022-12-20T09:01:19.875Z,11.38
2022-12-20T09:03:53.305Z,12.55
2022-12-20T09:06:26.677Z,10.13
2022-12-20T09:09:01.514Z,9.85
2022-12-20T09:11:35.062Z,12.18
2022-12-20T09:14:08.709Z,10.45
2022-12-20T09:16:43.311Z,13.13
2022-12-20T09:19:16.818Z,10.80
2022-12-20T09:21:50.240Z,10.18
2022-12-20T09:24:24.028Z,10.88
2022-12-20T09:26:57.524Z,11.18
2022-12-20T09:29:35.461Z,13.90
2022-12-20T09:32:10.751Z,10.57
2022-12-20T09:34:44.201Z,11.40
2022-12-20T09:37:17.666Z,14.02
2022-12-20T09:39:51.477Z,15.63
2022-12-20T09:42:28.933Z,12.40
2022-12-20T09:45:05.699Z,11.55
2022-12-20T09:47:42.099Z,8.98
2022-12-20T09:50:18.986Z,11.65
2022-12-20T09:53:07.135Z,13.02
2022-12-20T09:55:45.123Z,14.23
2022-12-20T09:58:34.918Z,10.50
2022-12-20T10:01:24.392Z,12.93
2022-12-20T10:04:03.897Z,8.88
2022-12-20T10:06:49.650Z,8.38
2022-12-20T10:09:55.150Z,9.57
2022-12-20T10:12:37.330Z,10.32
2022-12-20T10:15:20.602Z,10.30
2022-12-20T10:18:16.447Z,11.95
2022-12-20T10:21:00.952Z,10.05
2022-12-20T10:23:41.048Z,14.95
2022-12-20T10:26:15.447Z,10.55
2022-12-20T10:28:53.913Z,11.25
2022-12-20T10:31:29.175Z,17.15
2022-12-20T10:34:02.879Z,15.30
2022-12-20T10:36:38.668Z,17.30
2022-12-20T10:39:12.169Z,11.00
2022-12-20T10:41:52.075Z,13.07
2022-12-20T10:44:28.229Z,13.40
2022-12-20T10:47:02.242Z,16.48
2022-12-20T10:49:37.684Z,14.27
2022-12-20T10:52:17.624Z,11.90
2022-12-20T10:54:51.109Z,10.98
2022-12-20T10:57:26.907Z,12.95
2022-12-20T11:00:02.179Z,12.27
2022-12-20T11:02:42.152Z,14.85
2022-12-20T11:05:25.552Z,11.93
2022-12-20T11:08:44.451Z,11.45
2022-12-20T11:11:13.992Z,12.68
2022-12-20T11:13:48.246Z,12.52
2022-12-20T11:16:36.416Z,10.90
2022-12-20T11:19:41.369Z,9.77
2022-12-20T11:22:30.632Z,11.90
2022-12-20T11:25:18.175Z,11.05
2022-12-20T11:28:03.144Z,14.15
2022-12-20T11:30:47.001Z,11.18
2022-12-20T11:33:39.170Z,12.43
2022-12-20T11:36:23.719Z,11.10
2022-12-20T11:39:08.702Z,10.73
2022-12-20T11:41:52.251Z,12.13
2022-12-20T11:44:42.947Z,13.15
2022-12-20T11:47:43.176Z,13.27
2022-12-20T11:50:30.358Z,14.15
2022-12-20T11:53:08.877Z,14.07
2022-12-20T11:55:47.500Z,9.90
2022-12-20T11:58:27.933Z,10.73
2022-12-20T12:01:07.143Z,15.57
2022-12-20T12:03:43.108Z,11.75
2022-12-20T12:06:23.212Z,10.55
2022-12-20T12:09:05.894Z,8.50
2022-12-20T12:14:47.861Z,13.65
2022-12-20T12:17:28.256Z,10.25
2022-12-20T12:20:16.337Z,15.10
2022-12-20T12:22:54.784Z,9.00
2022-12-20T12:25:28.531Z,9.23
2022-12-20T12:28:02.182Z,15.98
2022-12-20T12:30:44.607Z,10.52
2022-12-20T12:33:25.599Z,13.95
2022-12-20T12:36:17.881Z,12.65
2022-12-20T12:39:09.733Z,11.60
2022-12-20T12:42:21.853Z,11.48
2022-12-20T12:44:59.007Z,14.15
2022-12-20T12:47:39.014Z,11.80
2022-12-20T12:50:22.960Z,14.75
2022-12-20T12:52:59.165Z,12.05
2022-12-20T12:55:37.749Z,12.55
2022-12-20T12:58:35.104Z,13.70
2022-12-20T13:01:12.064Z,9.30
2022-12-20T13:04:03.401Z,11.40
2022-12-20T13:07:21.741Z,11.13
2022-12-20T13:09:55.284Z,16.13
2022-12-20T13:12:57.374Z,15.75
2022-12-20T13:15:53.819Z,9.77
2022-12-20T13:18:30.421Z,14.35
2022-12-20T13:21:40.689Z,18.52
2022-12-20T13:24:47.009Z,12.93
2022-12-20T13:27:33.769Z,18.40
2022-12-20T13:30:26.755Z,12.25
2022-12-20T13:33:25.174Z,10.55
2022-12-20T13:36:26.680Z,18.92
2022-12-20T13:39:03.619Z,10.07
2022-12-20T13:41:40.189Z,12.30
2022-12-20T13:44:43.834Z,15.80
2022-12-20T13:47:44.559Z,12.73
2022-12-20T13:50:32.242Z,11.73
2022-12-20T13:53:07.176Z,13.30
2022-12-20T13:55:43.129Z,15.27
2022-12-20T13:58:20.583Z,16.70
2022-12-20T14:00:55.449Z,10.05
2022-12-20T14:03:31.679Z,14.60
2022-12-20T14:06:11.202Z,15.27
2022-12-20T14:08:48.037Z,10.55
2022-12-20T14:11:27.069Z,14.73
2022-12-20T14:14:02.391Z,13.43
2022-12-20T14:16:35.997Z,14.13
2022-12-20T14:19:15.730Z,13.43
2022-12-20T14:21:49.862Z,9.18
2022-12-20T14:24:24.489Z,16.35
2022-12-20T14:27:00.799Z,18.02
2022-12-20T14:29:34.959Z,12.18
2022-12-20T14:32:18.610Z,12.40
2022-12-20T14:34:53.937Z,12.57
2022-12-20T14:37:33.232Z,8.65
2022-12-20T14:40:20.463Z,12.77
2022-12-20T14:42:55.556Z,11.35
2022-12-20T14:45:29.457Z,20.20
2022-12-20T14:48:07.550Z,14.77
2022-12-20T14:50:41.990Z,16.02
2022-12-20T14:53:21.240Z,10.05
2022-12-20T14:55:54.874Z,13.50
2022-12-20T14:58:32.252Z,14.18
2022-12-20T15:01:20.173Z,18.00
2022-12-20T15:03:55.772Z,12.23
2022-12-20T15:06:40.856Z,9.38
2022-12-20T15:09:14.911Z,14.55
2022-12-20T15:11:49.255Z,13.98
2022-12-20T15:14:36.550Z,11.75
2022-12-20T15:17:13.319Z,12.57
2022-12-20T15:19:47.166Z,11.38
2022-12-20T15:22:21.674Z,9.18
2022-12-20T15:24:55.260Z,12.93
2022-12-20T15:27:28.835Z,10.93
2022-12-20T15:30:03.793Z,9.43
2022-12-20T15:32:40.832Z,13.25
2022-12-20T15:35:21.424Z,11.50
2022-12-20T15:37:54.929Z,16.17
2022-12-20T15:40:28.462Z,18.05
2022-12-20T15:43:01.968Z,8.48
2022-12-20T15:45:36.905Z,17.60
2022-12-20T15:48:17.992Z,12.73
2022-12-20T15:50:56.071Z,15.23
2022-12-20T15:53:34.047Z,14.82
2022-12-20T15:56:15.719Z,12.00
2022-12-20T15:58:50.077Z,12.10
2022-12-20T16:01:28.265Z,18.60
2022-12-20T16:04:03.302Z,26.42
2022-12-20T16:06:36.849Z,26.83
2022-12-20T16:09:10.397Z,16.02
2022-12-20T16:11:44.814Z,13.70
2022-12-20T16:14:21.257Z,21.63
2022-12-20T16:16:56.238Z,27.48
2022-12-20T16:19:29.814Z,23.85
2022-12-20T16:22:03.964Z,23.58
2022-12-20T16:24:37.528Z,28.02
2022-12-20T16:27:11.324Z,33.63
2022-12-20T16:29:45.631Z,31.83
2022-12-20T16:32:22.582Z,32.42
2022-12-20T16:34:56.100Z,31.70
2022-12-20T16:37:33.136Z,42.92
2022-12-20T16:40:15.978Z,26.48
2022-12-20T16:42:49.582Z,18.85
2022-12-20T16:45:25.399Z,27.95
2022-12-20T16:48:00.358Z,22.17
2022-12-20T16:50:33.848Z,26.67
2022-12-20T16:53:07.348Z,35.97
2022-12-20T16:55:40.972Z,39.75
2022-12-20T16:58:14.513Z,73.82
2022-12-20T17:00:48.067Z,45.28
2022-12-20T17:03:23.541Z,73.72
2022-12-20T17:05:58.030Z,57.63
2022-12-20T17:11:24.692Z,25.95
2022-12-20T17:13:58.371Z,38.08
2022-12-20T17:16:32.062Z,60.13
2022-12-20T17:19:07.055Z,61.60
2022-12-20T17:24:36.088Z,35.20
2022-12-20T17:27:10.859Z,41.67
2022-12-20T17:29:44.437Z,40.28
2022-12-20T17:32:21.877Z,41.00
2022-12-20T17:34:56.893Z,60.50
2022-12-20T17:37:30.608Z,53.65
2022-12-20T17:40:04.990Z,40.03
2022-12-20T17:42:38.549Z,45.60
2022-12-20T17:45:27.221Z,44.80
2022-12-20T17:48:01.140Z,52.47
2022-12-20T17:50:37.377Z,45.33
2022-12-20T17:53:10.987Z,54.83
2022-12-20T17:55:44.621Z,45.10
2022-12-20T17:58:18.126Z,34.78
2022-12-20T18:00:52.087Z,41.75
2022-12-20T18:06:21.377Z,34.95
2022-12-20T18:08:56.215Z,36.03
2022-12-20T18:11:30.368Z,31.13
2022-12-20T18:14:04.678Z,32.15
2022-12-20T18:16:40.545Z,38.75
2022-12-20T18:19:17.365Z,40.72
2022-12-20T18:21:52.375Z,42.30
2022-12-20T18:24:26.020Z,39.13
2022-12-20T18:26:59.651Z,26.92
2022-12-20T18:29:33.585Z,39.00
2022-12-20T18:32:07.461Z,31.30
2022-12-20T18:34:41.111Z,24.20
2022-12-20T18:37:16.138Z,42.92
2022-12-20T18:39:49.727Z,27.40
2022-12-20T18:42:23.376Z,28.65
2022-12-20T18:44:56.965Z,44.17
2022-12-20T18:47:32.413Z,45.45
2022-12-20T18:50:07.061Z,46.45
2022-12-20T18:52:43.188Z,50.45
2022-12-20T18:55:20.749Z,50.53
2022-12-20T18:57:54.304Z,62.35
2022-12-20T19:00:27.838Z,33.30
2022-12-20T19:03:02.423Z,33.78
2022-12-20T19:05:36.307Z,30.27
2022-12-20T19:08:11.228Z,44.85
2022-12-20T19:10:44.712Z,37.40
2022-12-20T19:13:18.813Z,44.97
2022-12-20T19:16:02.553Z,38.08
2022-12-20T19:18:36.650Z,27.00
2022-12-20T19:21:13.627Z,20.60
2022-12-20T19:23:53.785Z,29.60
2022-12-20T19:26:28.670Z,25.05
2022-12-20T19:29:05.267Z,28.52
2022-12-20T19:31:39.395Z,26.40
2022-12-20T19:34:14.959Z,28.27
2022-12-20T19:36:48.599Z,38.35
2022-12-20T19:39:24.102Z,28.50
2022-12-20T19:42:24.253Z,32.80
2022-12-20T19:44:58.599Z,43.95
2022-12-20T19:47:33.691Z,43.45
2022-12-20T19:50:09.276Z,72.70
2022-12-20T19:52:42.773Z,66.00
2022-12-20T19:55:17.969Z,46.95
2022-12-20T19:57:51.532Z,40.38
2022-12-20T20:00:27.431Z,38.30
2022-12-20T20:03:01.325Z,66.82
2022-12-20T20:05:36.230Z,49.83
2022-12-20T20:08:11.596Z,56.22
2022-12-20T20:10:48.701Z,55.45
2022-12-20T20:13:22.534Z,38.60
2022-12-20T20:15:57.843Z,38.22
2022-12-20T20:18:31.877Z,60.30
2022-12-20T20:21:08.651Z,53.97
2022-12-20T20:23:42.426Z,36.00
2022-12-20T20:26:19.651Z,33.67
2022-12-20T20:28:53.773Z,33.92
2022-12-20T20:31:27.354Z,40.42
2022-12-20T20:34:00.895Z,38.35
2022-12-20T20:36:34.424Z,39.97
2022-12-20T20:39:08.215Z,68.53
2022-12-20T20:41:43.451Z,63.58
2022-12-20T20:44:17.054Z,61.00
2022-12-20T20:46:50.566Z,24.77
2022-12-20T20:49:24.259Z,37.33
2022-12-20T20:51:57.905Z,38.30
2022-12-20T20:54:31.515Z,22.15
2022-12-20T20:57:06.615Z,21.13
2022-12-20T20:59:40.360Z,25.35
2022-12-20T21:02:15.149Z,19.45
2022-12-20T21:05:14.400Z,16.40
2022-12-20T21:07:42.351Z,16.17
2022-12-20T21:10:16.058Z,21.20
2022-12-20T21:12:51.195Z,15.13
2022-12-20T21:15:27.993Z,17.42
2022-12-20T21:18:01.550Z,16.00
2022-12-20T21:20:35.122Z,14.70
2022-12-20T21:23:08.891Z,19.95
2022-12-20T21:25:42.408Z,16.40
2022-12-20T21:28:21.314Z,13.98
2022-12-20T21:31:00.322Z,15.35
2022-12-20T21:33:33.957Z,18.98
2022-12-20T21:36:10.229Z,14.70
2022-12-20T21:38:44.131Z,13.45
2022-12-20T21:41:18.711Z,16.83
2022-12-20T21:43:56.438Z,18.63
2022-12-20T21:46:31.954Z,15.10
2022-12-20T21:49:05.627Z,15.05
2022-12-20T21:51:39.090Z,14.13
2022-12-20T21:54:12.615Z,19.17
2022-12-20T21:56:46.146Z,13.82
2022-12-20T21:59:21.550Z,17.58
2022-12-20T22:01:55.584Z,14.77
2022-12-20T22:04:29.343Z,17.77
2022-12-20T22:07:02.811Z,13.27
2022-12-20T22:09:36.375Z,13.73
2022-12-20T22:12:09.883Z,17.38
2022-12-20T22:14:44.782Z,15.10
2022-12-20T22:17:18.289Z,16.88
2022-12-20T22:19:51.820Z,14.35
2022-12-20T22:22:26.559Z,14.35
2022-12-20T22:25:00.103Z,16.70
2022-12-20T22:27:33.648Z,11.35
2022-12-20T22:30:10.247Z,14.00
2022-12-20T22:32:43.805Z,15.70
2022-12-20T22:35:22.551Z,16.67
2022-12-20T22:37:56.284Z,13.85
2022-12-20T22:40:29.818Z,13.25
2022-12-20T22:43:03.311Z,14.48
2022-12-20T22:45:38.200Z,15.02
2022-12-20T22:48:11.710Z,14.35
2022-12-20T22:50:45.221Z,14.30
2022-12-20T22:53:18.741Z,15.15
2022-12-20T22:55:52.547Z,14.95
2022-12-20T22:58:26.086Z,12.48
2022-12-20T23:01:02.454Z,12.07
2022-12-20T23:03:37.230Z,11.70
2022-12-20T23:06:14.436Z,15.38
2022-12-20T23:08:49.129Z,14.70
2022-12-20T23:11:41.761Z,14.10
2022-12-20T23:14:34.440Z,16.85
2022-12-20T23:17:11.336Z,11.35
2022-12-20T23:20:02.120Z,13.45
2022-12-20T23:22:41.374Z,18.73
2022-12-20T23:25:16.716Z,13.80
2022-12-20T23:27:51.254Z,22.95
2022-12-20T23:30:25.549Z,26.60
2022-12-20T23:33:00.494Z,27.58
2022-12-20T23:35:34.281Z,42.70
2022-12-20T23:38:07.742Z,36.90
2022-12-20T23:40:41.962Z,35.42
2022-12-20T23:43:15.421Z,41.83
2022-12-20T23:45:49.217Z,36.15
2022-12-20T23:48:24.114Z,35.17
2022-12-20T23:50:57.809Z,35.03
2022-12-20T23:53:31.581Z,35.38
2022-12-20T23:56:08.624Z,44.35
2022-12-20T23:58:43.161Z,28.92
